sensor_id;sensor_type;location;lat;lon;timestamp;pressure;altitude;pressure_sealevel;temperature;humidity
60345;BME280;46188;52.324;8.032;2023-08-07T00:01:47;99757.94;;;14.16;100.00
60345;BME280;46188;52.324;8.032;2023-08-07T00:04:12;99760.56;;;14.16;100.00
60345;BME280;46188;52.324;8.032;2023-08-07T00:06:37;99761.44;;;14.16;100.00
60345;BME280;46188;52.324;8.032;2023-08-07T00:09:02;99757.84;;;14.22;100.00
60345;BME280;46188;52.324;8.032;2023-08-07T00:11:28;99748.94;;;14.26;100.00
60345;BME280;46188;52.324;8.032;2023-08-07T00:13:53;99749.94;;;14.17;100.00
60345;BME280;46188;52.324;8.032;2023-08-07T00:16:19;99748.22;;;14.15;100.00
60345;BME280;46188;52.324;8.032;2023-08-07T00:18:44;99751.72;;;14.17;100.00
60345;BME280;46188;52.324;8.032;2023-08-07T00:21:09;99749.16;;;14.11;100.00
60345;BME280;46188;52.324;8.032;2023-08-07T00:23:35;99757.94;;;14.14;100.00
60345;BME280;46188;52.324;8.032;2023-08-07T00:26:00;99751.75;;;14.15;100.00
60345;BME280;46188;52.324;8.032;2023-08-07T00:28:25;99755.28;;;14.14;100.00
60345;BME280;46188;52.324;8.032;2023-08-07T00:30:50;99759.72;;;14.14;100.00
60345;BME280;46188;52.324;8.032;2023-08-07T00:33:16;99752.59;;;14.17;100.00
60345;BME280;46188;52.324;8.032;2023-08-07T00:35:41;99749.97;;;14.16;100.00
60345;BME280;46188;52.324;8.032;2023-08-07T00:38:06;99754.28;;;14.21;100.00
60345;BME280;46188;52.324;8.032;2023-08-07T00:40:38;99753.44;;;14.21;100.00
60345;BME280;46188;52.324;8.032;2023-08-07T00:43:03;99755.16;;;14.25;100.00
60345;BME280;46188;52.324;8.032;2023-08-07T00:45:29;99760.50;;;14.22;100.00
60345;BME280;46188;52.324;8.032;2023-08-07T00:47:54;99763.09;;;14.25;100.00
60345;BME280;46188;52.324;8.032;2023-08-07T00:50:20;99761.31;;;14.26;100.00
60345;BME280;46188;52.324;8.032;2023-08-07T00:52:45;99758.63;;;14.27;100.00
60345;BME280;46188;52.324;8.032;2023-08-07T00:55:10;99760.28;;;14.34;100.00
60345;BME280;46188;52.324;8.032;2023-08-07T00:57:36;99760.31;;;14.31;100.00
60345;BME280;46188;52.324;8.032;2023-08-07T01:00:02;99755.09;;;14.28;100.00
60345;BME280;46188;52.324;8.032;2023-08-07T01:02:27;99757.84;;;14.22;100.00
60345;BME280;46188;52.324;8.032;2023-08-07T01:04:53;99761.28;;;14.27;100.00
60345;BME280;46188;52.324;8.032;2023-08-07T01:07:18;99766.63;;;14.24;100.00
60345;BME280;46188;52.324;8.032;2023-08-07T01:09:43;99756.88;;;14.26;100.00
60345;BME280;46188;52.324;8.032;2023-08-07T01:12:30;99756.03;;;14.24;100.00
60345;BME280;46188;52.324;8.032;2023-08-07T01:15:03;99763.16;;;14.20;100.00
60345;BME280;46188;52.324;8.032;2023-08-07T01:17:32;99761.31;;;14.26;100.00
60345;BME280;46188;52.324;8.032;2023-08-07T01:19:59;99763.06;;;14.27;100.00
60345;BME280;46188;52.324;8.032;2023-08-07T01:22:25;99758.72;;;14.23;100.00
60345;BME280;46188;52.324;8.032;2023-08-07T01:24:51;99759.56;;;14.23;100.00
60345;BME280;46188;52.324;8.032;2023-08-07T01:29:57;99752.47;;;14.27;100.00
60345;BME280;46188;52.324;8.032;2023-08-07T01:32:33;99755.16;;;14.25;100.00
60345;BME280;46188;52.324;8.032;2023-08-07T01:35:01;99751.72;;;14.17;100.00
60345;BME280;46188;52.324;8.032;2023-08-07T01:37:29;99752.59;;;14.17;100.00
60345;BME280;46188;52.324;8.032;2023-08-07T01:39:58;99752.53;;;14.22;100.00
60345;BME280;46188;52.324;8.032;2023-08-07T01:42:24;99758.72;;;14.21;100.00
60345;BME280;46188;52.324;8.032;2023-08-07T01:44:49;99762.19;;;14.25;100.00
60345;BME280;46188;52.324;8.032;2023-08-07T01:47:15;99752.47;;;14.27;100.00
60345;BME280;46188;52.324;8.032;2023-08-07T01:49:40;99749.88;;;14.22;100.00
60345;BME280;46188;52.324;8.032;2023-08-07T01:52:06;99744.63;;;14.19;100.00
60345;BME280;46188;52.324;8.032;2023-08-07T01:54:32;99742.88;;;14.16;100.00
60345;BME280;46188;52.324;8.032;2023-08-07T01:56:57;99742.97;;;14.12;100.00
60345;BME280;46188;52.324;8.032;2023-08-07T01:59:22;99743.84;;;14.12;100.00
60345;BME280;46188;52.324;8.032;2023-08-07T02:01:47;99746.41;;;14.18;100.00
60345;BME280;46188;52.324;8.032;2023-08-07T02:04:13;99743.75;;;14.18;100.00
60345;BME280;46188;52.324;8.032;2023-08-07T02:06:38;99753.50;;;14.16;100.00
60345;BME280;46188;52.324;8.032;2023-08-07T02:09:03;99752.59;;;14.19;100.00
60345;BME280;46188;52.324;8.032;2023-08-07T02:11:29;99755.19;;;14.22;100.00
60345;BME280;46188;52.324;8.032;2023-08-07T02:13:54;99751.72;;;14.18;100.00
60345;BME280;46188;52.324;8.032;2023-08-07T02:16:20;99753.50;;;14.16;100.00
60345;BME280;46188;52.324;8.032;2023-08-07T02:18:46;99755.28;;;14.16;100.00
60345;BME280;46188;52.324;8.032;2023-08-07T02:21:11;99761.41;;;14.18;100.00
60345;BME280;46188;52.324;8.032;2023-08-07T02:23:36;99749.09;;;14.17;100.00
60345;BME280;46188;52.324;8.032;2023-08-07T02:26:01;99748.22;;;14.15;100.00
60345;BME280;46188;52.324;8.032;2023-08-07T02:28:27;99757.03;;;14.17;100.00
60345;BME280;46188;52.324;8.032;2023-08-07T02:30:52;99749.03;;;14.20;100.00
60345;BME280;46188;52.324;8.032;2023-08-07T02:33:19;99744.63;;;14.19;100.00
60345;BME280;46188;52.324;8.032;2023-08-07T02:35:44;99760.56;;;14.16;100.00
60345;BME280;46188;52.324;8.032;2023-08-07T02:38:09;99763.25;;;14.13;100.00
60345;BME280;46188;52.324;8.032;2023-08-07T02:40:35;99759.75;;;14.12;100.00
60345;BME280;46188;52.324;8.032;2023-08-07T02:43:00;99754.44;;;14.14;100.00
60345;BME280;46188;52.324;8.032;2023-08-07T02:45:25;99760.63;;;14.13;100.00
60345;BME280;46188;52.324;8.032;2023-08-07T02:47:50;99754.28;;;14.21;100.00
60345;BME280;46188;52.324;8.032;2023-08-07T02:50:16;99758.69;;;14.24;100.00
60345;BME280;46188;52.324;8.032;2023-08-07T02:52:41;99758.63;;;14.27;100.00
60345;BME280;46188;52.324;8.032;2023-08-07T02:55:06;99754.19;;;14.29;100.00
60345;BME280;46188;52.324;8.032;2023-08-07T02:57:32;99759.47;;;14.29;100.00
60345;BME280;46188;52.324;8.032;2023-08-07T02:59:57;99756.00;;;14.26;100.00
60345;BME280;46188;52.324;8.032;2023-08-07T03:02:22;99756.09;;;14.19;100.00
60345;BME280;46188;52.324;8.032;2023-08-07T03:04:48;99751.78;;;14.14;100.00
60345;BME280;46188;52.324;8.032;2023-08-07T03:07:13;99748.28;;;14.12;100.00
60345;BME280;46188;52.324;8.032;2023-08-07T03:09:38;99750.91;;;14.13;100.00
60345;BME280;46188;52.324;8.032;2023-08-07T03:12:04;99757.03;;;14.17;100.00
60345;BME280;46188;52.324;8.032;2023-08-07T03:14:30;99744.69;;;14.14;100.00
60345;BME280;46188;52.324;8.032;2023-08-07T03:16:56;99748.16;;;14.18;100.00
60345;BME280;46188;52.324;8.032;2023-08-07T03:19:21;99749.09;;;14.17;100.00
60345;BME280;46188;52.324;8.032;2023-08-07T03:21:46;99750.84;;;14.16;100.00
60345;BME280;46188;52.324;8.032;2023-08-07T03:24:12;99744.66;;;14.17;100.00
60345;BME280;46188;52.324;8.032;2023-08-07T03:26:37;99748.16;;;14.19;100.00
60345;BME280;46188;52.324;8.032;2023-08-07T03:29:02;99754.28;;;14.21;100.00
60345;BME280;46188;52.324;8.032;2023-08-07T03:31:27;99745.50;;;14.19;100.00
60345;BME280;46188;52.324;8.032;2023-08-07T03:33:53;99746.50;;;14.12;100.00
60345;BME280;46188;52.324;8.032;2023-08-07T03:36:18;99748.28;;;14.12;100.00
60345;BME280;46188;52.324;8.032;2023-08-07T03:38:44;99743.81;;;14.14;100.00
60345;BME280;46188;52.324;8.032;2023-08-07T03:41:09;99749.94;;;14.19;100.00
60345;BME280;46188;52.324;8.032;2023-08-07T03:43:35;99751.81;;;14.11;100.00
60345;BME280;46188;52.324;8.032;2023-08-07T03:46:00;99755.34;;;14.10;100.00
60345;BME280;46188;52.324;8.032;2023-08-07T03:48:25;99753.50;;;14.15;100.00
60345;BME280;46188;52.324;8.032;2023-08-07T03:50:50;99757.00;;;14.20;100.00
60345;BME280;46188;52.324;8.032;2023-08-07T03:53:16;99760.53;;;14.19;100.00
60345;BME280;46188;52.324;8.032;2023-08-07T03:55:41;99760.63;;;14.13;100.00
60345;BME280;46188;52.324;8.032;2023-08-07T03:58:07;99767.72;;;14.11;100.00
60345;BME280;46188;52.324;8.032;2023-08-07T04:00:32;99765.84;;;14.19;100.00
60345;BME280;46188;52.324;8.032;2023-08-07T04:02:58;99771.22;;;14.13;100.00
60345;BME280;46188;52.324;8.032;2023-08-07T04:05:23;99771.31;;;14.07;100.00
60345;BME280;46188;52.324;8.032;2023-08-07T04:07:48;99774.03;;;14.02;100.00
60345;BME280;46188;52.324;8.032;2023-08-07T04:10:14;99759.91;;;14.00;100.00
60345;BME280;46188;52.324;8.032;2023-08-07T04:12:39;99767.81;;;14.03;100.00
60345;BME280;46188;52.324;8.032;2023-08-07T04:15:04;99764.31;;;14.02;100.00
60345;BME280;46188;52.324;8.032;2023-08-07T04:17:30;99760.84;;;13.99;100.00
60345;BME280;46188;52.324;8.032;2023-08-07T04:19:55;99763.44;;;14.02;100.00
60345;BME280;46188;52.324;8.032;2023-08-07T04:22:20;99764.31;;;14.02;100.00
60345;BME280;46188;52.324;8.032;2023-08-07T04:24:46;99764.34;;;13.99;100.00
60345;BME280;46188;52.324;8.032;2023-08-07T04:27:11;99760.78;;;14.03;100.00
60345;BME280;46188;52.324;8.032;2023-08-07T04:29:37;99762.47;;;14.08;100.00
60345;BME280;46188;52.324;8.032;2023-08-07T04:32:02;99769.56;;;14.06;100.00
60345;BME280;46188;52.324;8.032;2023-08-07T04:34:28;99773.06;;;14.08;100.00
60345;BME280;46188;52.324;8.032;2023-08-07T04:36:53;99778.44;;;14.03;100.00
60345;BME280;46188;52.324;8.032;2023-08-07T04:39:20;99780.19;;;14.04;100.00
60345;BME280;46188;52.324;8.032;2023-08-07T04:41:46;99783.72;;;14.03;100.00
60345;BME280;46188;52.324;8.032;2023-08-07T04:44:12;99784.66;;;14.00;100.00
60345;BME280;46188;52.324;8.032;2023-08-07T04:46:37;99783.72;;;14.03;100.00
60345;BME280;46188;52.324;8.032;2023-08-07T04:49:03;99780.19;;;14.04;100.00
60345;BME280;46188;52.324;8.032;2023-08-07T04:51:28;99785.44;;;14.07;100.00
60345;BME280;46188;52.324;8.032;2023-08-07T04:53:54;99788.94;;;14.09;100.00
60345;BME280;46188;52.324;8.032;2023-08-07T04:56:21;99783.69;;;14.06;100.00
60345;BME280;46188;52.324;8.032;2023-08-07T04:58:47;99791.63;;;14.06;100.00
60345;BME280;46188;52.324;8.032;2023-08-07T05:01:12;99789.81;;;14.10;100.00
60345;BME280;46188;52.324;8.032;2023-08-07T05:03:37;99799.56;;;14.08;100.00
60345;BME280;46188;52.324;8.032;2023-08-07T05:06:02;99789.81;;;14.10;100.00
60345;BME280;46188;52.324;8.032;2023-08-07T05:08:28;99796.03;;;14.09;100.00
60345;BME280;46188;52.324;8.032;2023-08-07T05:10:54;99794.31;;;14.05;100.00
60345;BME280;46188;52.324;8.032;2023-08-07T05:13:19;99810.16;;;14.08;100.00
60345;BME280;46188;52.324;8.032;2023-08-07T05:15:47;99809.25;;;14.12;100.00
60345;BME280;46188;52.324;8.032;2023-08-07T05:18:12;99804.78;;;14.15;100.00
60345;BME280;46188;52.324;8.032;2023-08-07T05:20:37;99805.69;;;14.11;100.00
60345;BME280;46188;52.324;8.032;2023-08-07T05:23:03;99802.25;;;14.05;100.00
60345;BME280;46188;52.324;8.032;2023-08-07T05:25:28;99804.94;;;14.03;100.00
60345;BME280;46188;52.324;8.032;2023-08-07T05:27:53;99806.72;;;14.02;100.00
60345;BME280;46188;52.324;8.032;2023-08-07T05:30:18;99807.56;;;14.03;100.00
60345;BME280;46188;52.324;8.032;2023-08-07T05:32:44;99812.09;;;13.96;100.00
60345;BME280;46188;52.324;8.032;2023-08-07T05:35:09;99812.91;;;14.00;100.00
60345;BME280;46188;52.324;8.032;2023-08-07T05:37:35;99807.59;;;14.01;100.00
60345;BME280;46188;52.324;8.032;2023-08-07T05:40:01;99812.84;;;14.06;100.00
60345;BME280;46188;52.324;8.032;2023-08-07T05:42:26;99810.13;;;14.11;100.00
60345;BME280;46188;52.324;8.032;2023-08-07T05:44:51;99814.47;;;14.15;100.00
60345;BME280;46188;52.324;8.032;2023-08-07T05:47:16;99813.50;;;14.22;100.00
60345;BME280;46188;52.324;8.032;2023-08-07T05:49:42;99820.63;;;14.20;100.00
60345;BME280;46188;52.324;8.032;2023-08-07T05:52:07;99818.00;;;14.17;100.00
60345;BME280;46188;52.324;8.032;2023-08-07T05:54:33;99820.56;;;14.21;100.00
60345;BME280;46188;52.324;8.032;2023-08-07T05:56:58;99828.59;;;14.17;100.00
60345;BME280;46188;52.324;8.032;2023-08-07T05:59:23;99821.53;;;14.16;100.00
60345;BME280;46188;52.324;8.032;2023-08-07T06:01:49;99820.69;;;14.15;100.00
60345;BME280;46188;52.324;8.032;2023-08-07T06:04:14;99822.34;;;14.21;100.00
60345;BME280;46188;52.324;8.032;2023-08-07T06:06:39;99835.56;;;14.24;100.00
60345;BME280;46188;52.324;8.032;2023-08-07T06:09:05;99839.97;;;14.25;100.00
60345;BME280;46188;52.324;8.032;2023-08-07T06:11:32;99828.50;;;14.21;100.00
60345;BME280;46188;52.324;8.032;2023-08-07T06:13:58;99831.16;;;14.23;100.00
60345;BME280;46188;52.324;8.032;2023-08-07T06:16:23;99843.53;;;14.23;100.00
60345;BME280;46188;52.324;8.032;2023-08-07T06:18:48;99842.59;;;14.28;100.00
60345;BME280;46188;52.324;8.032;2023-08-07T06:21:13;99842.50;;;14.33;100.00
60345;BME280;46188;52.324;8.032;2023-08-07T06:23:39;99842.59;;;14.28;100.00
60345;BME280;46188;52.324;8.032;2023-08-07T06:26:04;99844.31;;;14.31;100.00
60345;BME280;46188;52.324;8.032;2023-08-07T06:28:32;99847.75;;;14.36;100.00
60345;BME280;46188;52.324;8.032;2023-08-07T06:31:02;99853.00;;;14.40;100.00
60345;BME280;46188;52.324;8.032;2023-08-07T06:33:28;99855.69;;;14.37;100.00
60345;BME280;46188;52.324;8.032;2023-08-07T06:35:53;99858.34;;;14.37;100.00
60345;BME280;46188;52.324;8.032;2023-08-07T06:38:18;99851.22;;;14.41;100.00
60345;BME280;46188;52.324;8.032;2023-08-07T06:40:44;99856.47;;;14.46;100.00
60345;BME280;46188;52.324;8.032;2023-08-07T06:43:09;99858.22;;;14.48;100.00
60345;BME280;46188;52.324;8.032;2023-08-07T06:45:34;99867.06;;;14.47;100.00
60345;BME280;46188;52.324;8.032;2023-08-07T06:48:00;99851.06;;;14.52;100.00
60345;BME280;46188;52.324;8.032;2023-08-07T06:50:25;99862.53;;;14.54;100.00
60345;BME280;46188;52.324;8.032;2023-08-07T06:52:50;99856.41;;;14.49;100.00
60345;BME280;46188;52.324;8.032;2023-08-07T06:55:16;99867.06;;;14.46;100.00
60345;BME280;46188;52.324;8.032;2023-08-07T06:57:41;99869.72;;;14.46;100.00
60345;BME280;46188;52.324;8.032;2023-08-07T07:00:07;99874.13;;;14.47;100.00
60345;BME280;46188;52.324;8.032;2023-08-07T07:02:32;99866.19;;;14.47;100.00
60345;BME280;46188;52.324;8.032;2023-08-07T07:04:57;99873.97;;;14.56;100.00
60345;BME280;46188;52.324;8.032;2023-08-07T07:07:23;99872.94;;;14.68;100.00
60345;BME280;46188;52.324;8.032;2023-08-07T07:09:48;99875.44;;;14.79;100.00
60345;BME280;46188;52.324;8.032;2023-08-07T07:12:13;99871.84;;;14.81;100.00
60345;BME280;46188;52.324;8.032;2023-08-07T07:14:38;99872.72;;;14.85;100.00
60345;BME280;46188;52.324;8.032;2023-08-07T07:17:04;99874.47;;;14.84;100.00
60345;BME280;46188;52.324;8.032;2023-08-07T07:19:29;99874.56;;;14.80;100.00
60345;BME280;46188;52.324;8.032;2023-08-07T07:21:54;99878.94;;;14.81;100.00
60345;BME280;46188;52.324;8.032;2023-08-07T07:24:20;99885.25;;;14.75;100.00
60345;BME280;46188;52.324;8.032;2023-08-07T07:26:45;99876.50;;;14.68;100.00
60345;BME280;46188;52.324;8.032;2023-08-07T07:29:11;99881.84;;;14.65;100.00
60345;BME280;46188;52.324;8.032;2023-08-07T07:31:36;99889.88;;;14.61;100.00
60345;BME280;46188;52.324;8.032;2023-08-07T07:34:01;99892.50;;;14.62;100.00
60345;BME280;46188;52.324;8.032;2023-08-07T07:36:27;99900.31;;;14.73;100.00
60345;BME280;46188;52.324;8.032;2023-08-07T07:38:52;99893.94;;;14.85;100.00
60345;BME280;46188;52.324;8.032;2023-08-07T07:41:17;99895.66;;;14.87;100.00
60345;BME280;46188;52.324;8.032;2023-08-07T07:43:43;99902.47;;;15.04;100.00
60345;BME280;46188;52.324;8.032;2023-08-07T07:46:09;99900.47;;;15.18;100.00
60345;BME280;46188;52.324;8.032;2023-08-07T07:48:34;99899.66;;;15.13;100.00
60345;BME280;46188;52.324;8.032;2023-08-07T07:51:00;99908.34;;;15.24;100.00
60345;BME280;46188;52.324;8.032;2023-08-07T07:53:26;99909.91;;;15.36;100.00
60345;BME280;46188;52.324;8.032;2023-08-07T07:55:51;99912.41;;;15.42;100.00
60345;BME280;46188;52.324;8.032;2023-08-07T07:58:17;99912.25;;;15.52;100.00
60345;BME280;46188;52.324;8.032;2023-08-07T08:00:42;99919.22;;;15.59;100.00
60345;BME280;46188;52.324;8.032;2023-08-07T08:03:07;99915.69;;;15.58;100.00
60345;BME280;46188;52.324;8.032;2023-08-07T08:05:33;99916.44;;;15.65;100.00
60345;BME280;46188;52.324;8.032;2023-08-07T08:07:59;99912.75;;;15.72;100.00
60345;BME280;46188;52.324;8.032;2023-08-07T08:10:24;99925.19;;;15.72;100.00
60345;BME280;46188;52.324;8.032;2023-08-07T08:12:50;99926.91;;;15.74;100.00
60345;BME280;46188;52.324;8.032;2023-08-07T08:15:15;99932.34;;;15.68;100.00
60345;BME280;46188;52.324;8.032;2023-08-07T08:17:41;99931.34;;;15.72;100.00
60345;BME280;46188;52.324;8.032;2023-08-07T08:20:06;99917.16;;;15.75;100.00
60345;BME280;46188;52.324;8.032;2023-08-07T08:22:32;99925.19;;;15.72;100.00
60345;BME280;46188;52.324;8.032;2023-08-07T08:24:58;99935.00;;;15.68;100.00
60345;BME280;46188;52.324;8.032;2023-08-07T08:27:23;99939.41;;;15.69;100.00
60345;BME280;46188;52.324;8.032;2023-08-07T08:29:50;99945.56;;;15.71;100.00
60345;BME280;46188;52.324;8.032;2023-08-07T08:32:15;99946.41;;;15.73;100.00
60345;BME280;46188;52.324;8.032;2023-08-07T08:34:40;99941.13;;;15.72;100.00
60345;BME280;46188;52.324;8.032;2023-08-07T08:37:06;99952.53;;;15.78;100.00
60345;BME280;46188;52.324;8.032;2023-08-07T08:39:31;99954.09;;;15.90;100.00
60345;BME280;46188;52.324;8.032;2023-08-07T08:41:56;99954.81;;;15.98;100.00
60345;BME280;46188;52.324;8.032;2023-08-07T08:44:24;99953.09;;;15.97;100.00
60345;BME280;46188;52.324;8.032;2023-08-07T08:46:50;99967.41;;;15.89;100.00
60345;BME280;46188;52.324;8.032;2023-08-07T08:49:22;99958.81;;;15.76;100.00
60345;BME280;46188;52.324;8.032;2023-08-07T08:51:49;99975.78;;;15.64;100.00
60345;BME280;46188;52.324;8.032;2023-08-07T08:54:15;99981.28;;;15.55;100.00
60345;BME280;46188;52.324;8.032;2023-08-07T08:56:41;99971.59;;;15.50;100.00
60345;BME280;46188;52.324;8.032;2023-08-07T08:59:07;99977.78;;;15.53;100.00
60345;BME280;46188;52.324;8.032;2023-08-07T09:01:32;99983.22;;;15.45;100.00
60345;BME280;46188;52.324;8.032;2023-08-07T09:03:58;99985.06;;;15.41;100.00
60345;BME280;46188;52.324;8.032;2023-08-07T09:06:24;99979.91;;;15.30;100.00
60345;BME280;46188;52.324;8.032;2023-08-07T09:08:52;99981.44;;;15.45;100.00
60345;BME280;46188;52.324;8.032;2023-08-07T09:11:19;99988.06;;;15.73;100.00
60345;BME280;46188;52.324;8.032;2023-08-07T09:13:44;99980.22;;;16.13;100.00
60345;BME280;46188;52.324;8.032;2023-08-07T09:16:12;99973.75;;;16.27;100.00
60345;BME280;46188;52.324;8.032;2023-08-07T09:18:38;99992.75;;;16.08;100.00
60345;BME280;46188;52.324;8.032;2023-08-07T09:21:03;99990.59;;;15.80;100.00
60345;BME280;46188;52.324;8.032;2023-08-07T09:23:28;99990.31;;;15.96;100.00
60345;BME280;46188;52.324;8.032;2023-08-07T09:26:03;99986.97;;;16.31;100.00
60345;BME280;46188;52.324;8.032;2023-08-07T09:28:29;99985.81;;;16.45;100.00
60345;BME280;46188;52.324;8.032;2023-08-07T09:30:55;99983.84;;;16.53;100.00
60345;BME280;46188;52.324;8.032;2023-08-07T09:33:25;99999.19;;;16.40;100.00
60345;BME280;46188;52.324;8.032;2023-08-07T09:35:50;100001.38;;;16.19;100.00
60345;BME280;46188;52.324;8.032;2023-08-07T09:38:15;100001.56;;;16.10;100.00
60345;BME280;46188;52.324;8.032;2023-08-07T09:40:42;100002.31;;;16.17;100.00
60345;BME280;46188;52.324;8.032;2023-08-07T09:43:07;99997.47;;;16.39;100.00
60345;BME280;46188;52.324;8.032;2023-08-07T09:45:33;100005.34;;;16.44;100.00
60345;BME280;46188;52.324;8.032;2023-08-07T09:48:03;100005.66;;;16.70;100.00
60345;BME280;46188;52.324;8.032;2023-08-07T09:50:29;100005.13;;;16.96;100.00
60345;BME280;46188;52.324;8.032;2023-08-07T09:52:55;100028.72;;;16.70;100.00
60345;BME280;46188;52.324;8.032;2023-08-07T09:55:21;100035.78;;;16.29;100.00
60345;BME280;46188;52.324;8.032;2023-08-07T09:57:48;100051.09;;;16.16;100.00
60345;BME280;46188;52.324;8.032;2023-08-07T10:00:13;100050.34;;;16.09;100.00
60345;BME280;46188;52.324;8.032;2023-08-07T10:02:43;100056.00;;;15.91;100.00
60345;BME280;46188;52.324;8.032;2023-08-07T10:05:11;100067.84;;;15.68;100.00
60345;BME280;46188;52.324;8.032;2023-08-07T10:07:38;100066.28;;;15.55;100.00
60345;BME280;46188;52.324;8.032;2023-08-07T10:10:04;100066.41;;;15.47;100.00
60345;BME280;46188;52.324;8.032;2023-08-07T10:12:29;100062.91;;;15.45;100.00
60345;BME280;46188;52.324;8.032;2023-08-07T10:14:55;100069.19;;;15.41;100.00
60345;BME280;46188;52.324;8.032;2023-08-07T10:17:21;100076.22;;;15.43;100.00
60345;BME280;46188;52.324;8.032;2023-08-07T10:19:48;100074.38;;;15.47;100.00
60345;BME280;46188;52.324;8.032;2023-08-07T10:22:15;100081.50;;;15.45;100.00
60345;BME280;46188;52.324;8.032;2023-08-07T10:24:42;100078.06;;;15.37;100.00
60345;BME280;46188;52.324;8.032;2023-08-07T10:27:12;100085.34;;;15.24;100.00
60345;BME280;46188;52.324;8.032;2023-08-07T10:29:39;100105.00;;;15.10;100.00
60345;BME280;46188;52.324;8.032;2023-08-07T10:32:06;100130.94;;;14.90;100.00
60345;BME280;46188;52.324;8.032;2023-08-07T10:34:37;100135.91;;;14.38;100.00
60345;BME280;46188;52.324;8.032;2023-08-07T10:37:06;100139.66;;;14.14;100.00
60345;BME280;46188;52.324;8.032;2023-08-07T10:39:31;100123.88;;;14.02;100.00
60345;BME280;46188;52.324;8.032;2023-08-07T10:41:56;100138.84;;;14.05;100.00
60345;BME280;46188;52.324;8.032;2023-08-07T10:44:24;100129.16;;;14.03;100.00
60345;BME280;46188;52.324;8.032;2023-08-07T10:46:53;100130.00;;;14.06;100.00
60345;BME280;46188;52.324;8.032;2023-08-07T10:49:38;100127.31;;;14.13;100.00
60345;BME280;46188;52.324;8.032;2023-08-07T10:52:12;100128.94;;;14.27;100.00
60345;BME280;46188;52.324;8.032;2023-08-07T10:54:41;100112.78;;;14.50;100.00
60345;BME280;46188;52.324;8.032;2023-08-07T10:57:10;100125.97;;;14.56;100.00
60345;BME280;46188;52.324;8.032;2023-08-07T10:59:38;100125.06;;;14.62;100.00
60345;BME280;46188;52.324;8.032;2023-08-07T11:02:07;100118.81;;;14.66;100.00
60345;BME280;46188;52.324;8.032;2023-08-07T11:04:34;100122.28;;;14.74;100.00
60345;BME280;46188;52.324;8.032;2023-08-07T11:07:01;100127.34;;;14.94;100.00
60345;BME280;46188;52.324;8.032;2023-08-07T11:09:27;100128.06;;;15.05;100.00
60345;BME280;46188;52.324;8.032;2023-08-07T11:11:52;100130.44;;;15.27;100.00
60345;BME280;46188;52.324;8.032;2023-08-07T11:14:19;100126.69;;;15.42;100.00
60345;BME280;46188;52.324;8.032;2023-08-07T11:16:47;100117.50;;;15.66;100.00
60345;BME280;46188;52.324;8.032;2023-08-07T11:19:17;100124.38;;;15.81;100.00
60345;BME280;46188;52.324;8.032;2023-08-07T11:21:42;100121.28;;;16.07;100.00
60345;BME280;46188;52.324;8.032;2023-08-07T11:24:08;100110.19;;;16.32;100.00
60345;BME280;46188;52.324;8.032;2023-08-07T11:26:33;100116.97;;;16.48;100.00
60345;BME280;46188;52.324;8.032;2023-08-07T11:28:59;100127.72;;;16.45;100.00
60345;BME280;46188;52.324;8.032;2023-08-07T11:31:24;100121.66;;;16.37;100.00
60345;BME280;46188;52.324;8.032;2023-08-07T11:33:51;100112.16;;;16.22;100.00
60345;BME280;46188;52.324;8.032;2023-08-07T11:36:17;100116.16;;;16.45;100.00
60345;BME280;46188;52.324;8.032;2023-08-07T11:38:43;100114.88;;;16.66;100.00
60345;BME280;46188;52.324;8.032;2023-08-07T11:41:10;100113.47;;;16.93;100.00
60345;BME280;46188;52.324;8.032;2023-08-07T11:43:36;100124.75;;;17.06;100.00
60345;BME280;46188;52.324;8.032;2023-08-07T11:46:04;100114.22;;;17.00;100.00
60345;BME280;46188;52.324;8.032;2023-08-07T11:48:32;100112.22;;;17.09;100.00
60345;BME280;46188;52.324;8.032;2023-08-07T11:50:58;100110.25;;;17.19;100.00
60345;BME280;46188;52.324;8.032;2023-08-07T11:53:25;100119.53;;;17.42;100.00
60345;BME280;46188;52.324;8.032;2023-08-07T11:55:59;100111.88;;;17.26;100.00
60345;BME280;46188;52.324;8.032;2023-08-07T11:58:26;100119.53;;;17.00;100.00
60345;BME280;46188;52.324;8.032;2023-08-07T12:00:53;100129.50;;;16.91;100.00
60345;BME280;46188;52.324;8.032;2023-08-07T12:04:10;100133.25;;;16.78;100.00
60345;BME280;46188;52.324;8.032;2023-08-07T12:06:16;100147.09;;;16.52;100.00
60345;BME280;46188;52.324;8.032;2023-08-07T12:08:42;100142.25;;;16.26;100.00
60345;BME280;46188;52.324;8.032;2023-08-07T12:11:09;100156.00;;;15.98;100.00
60345;BME280;46188;52.324;8.032;2023-08-07T12:13:40;100146.41;;;15.89;100.00
60345;BME280;46188;52.324;8.032;2023-08-07T12:16:06;100159.66;;;15.91;100.00
60345;BME280;46188;52.324;8.032;2023-08-07T12:18:33;100155.91;;;16.04;100.00
60345;BME280;46188;52.324;8.032;2023-08-07T12:21:00;100154.53;;;16.31;100.00
60345;BME280;46188;52.324;8.032;2023-08-07T12:23:26;100165.69;;;16.53;100.00
60345;BME280;46188;52.324;8.032;2023-08-07T12:25:51;100155.84;;;16.58;100.00
60345;BME280;46188;52.324;8.032;2023-08-07T12:28:18;100163.50;;;16.75;100.00
60345;BME280;46188;52.324;8.032;2023-08-07T12:30:45;100159.25;;;16.65;100.00
60345;BME280;46188;52.324;8.032;2023-08-07T12:33:12;100156.66;;;16.62;100.00
60345;BME280;46188;52.324;8.032;2023-08-07T12:35:37;100172.09;;;16.41;100.00
60345;BME280;46188;52.324;8.032;2023-08-07T12:38:02;100172.28;;;16.31;100.00
60345;BME280;46188;52.324;8.032;2023-08-07T12:40:29;100165.06;;;16.37;100.00
60345;BME280;46188;52.324;8.032;2023-08-07T12:42:55;100180.44;;;16.70;99.06
60345;BME280;46188;52.324;8.032;2023-08-07T12:45:20;100173.88;;;16.89;98.52